createdAt,value
2023-02-17T00:00:29.218Z,100105.75
2023-02-17T00:01:32.596Z,100106.27
2023-02-17T00:02:30.218Z,100100.73
2023-02-17T00:03:30.392Z,100103.7
2023-02-17T00:04:32.417Z,100100.83
2023-02-17T00:05:30.985Z,100099.57
2023-02-17T00:06:31.755Z,100096.62
2023-02-17T00:07:32.740Z,100095.35
2023-02-17T00:08:32.036Z,100100.98
2023-02-17T00:09:32.353Z,100101.92
2023-02-17T00:10:32.873Z,100099.92
2023-02-17T00:11:32.964Z,100098.77
2023-02-17T00:12:33.702Z,100099.86
2023-02-17T00:13:34.024Z,100092.62
2023-02-17T00:14:34.115Z,100094.95
2023-02-17T00:15:34.481Z,100097.33
2023-02-17T00:16:34.680Z,100099.61
2023-02-17T00:17:35.162Z,100097.44
2023-02-17T00:18:35.386Z,100095.84
2023-02-17T00:19:35.689Z,100097.46
2023-02-17T00:20:36.092Z,100100.71
2023-02-17T00:21:36.330Z,100099.11
2023-02-17T00:22:36.736Z,100102.09
2023-02-17T00:23:37.044Z,100097.17
2023-02-17T00:24:40.838Z,100095.08
2023-02-17T00:25:39.219Z,100093.24
2023-02-17T00:26:38.609Z,100095.73
2023-02-17T00:27:39.022Z,100090
2023-02-17T00:28:39.342Z,100093.36
2023-02-17T00:29:39.645Z,100090.55
2023-02-17T00:30:39.967Z,100090.58
2023-02-17T00:31:40.525Z,100092.58
2023-02-17T00:32:40.442Z,100087.02
2023-02-17T00:33:41.120Z,100086.84
2023-02-17T00:34:41.215Z,100083.38
2023-02-17T00:35:41.738Z,100084.98
2023-02-17T00:36:41.838Z,100080.75
2023-02-17T00:37:42.281Z,100079.99
2023-02-17T00:38:43.098Z,100077.7
2023-02-17T00:39:42.977Z,100077.45
2023-02-17T00:40:43.418Z,100080.59
2023-02-17T00:41:44.454Z,100076.07
2023-02-17T00:42:44.039Z,100076.39
2023-02-17T00:43:44.663Z,100075.31
2023-02-17T00:44:44.557Z,100077.38
2023-02-17T00:45:45.038Z,100074.58
2023-02-17T00:46:46.787Z,100073.23
2023-02-17T00:47:45.617Z,100072.48
2023-02-17T00:48:47.127Z,100069.3
2023-02-17T00:49:46.335Z,100066.28
2023-02-17T00:50:47.050Z,100062.46
2023-02-17T00:51:47.998Z,100063.22
2023-02-17T00:52:47.381Z,100064.55
2023-02-17T00:53:47.679Z,100064.09
2023-02-17T00:54:47.928Z,100058.2
2023-02-17T00:55:49.433Z,100057
2023-02-17T00:56:48.739Z,100054.38
2023-02-17T00:57:49.427Z,100054.11
2023-02-17T00:58:49.375Z,100056.03
2023-02-17T00:59:49.697Z,100056.66
2023-02-17T01:00:49.998Z,100057.47
2023-02-17T01:01:50.403Z,100057.47
2023-02-17T01:02:50.829Z,100056.54
2023-02-17T01:03:51.153Z,100056.63
2023-02-17T01:04:51.592Z,100054.69
2023-02-17T01:05:52.479Z,100054.46
2023-02-17T01:06:52.099Z,100056.27
2023-02-17T01:07:52.298Z,100054.14
2023-02-17T01:08:53.750Z,100053.47
2023-02-17T01:09:53.119Z,100051.42
2023-02-17T01:10:53.956Z,100052.78
2023-02-17T01:11:53.750Z,100053.1
2023-02-17T01:12:54.178Z,100049.32
2023-02-17T01:13:56.014Z,100051.91
2023-02-17T01:14:54.790Z,100049.75
2023-02-17T01:15:55.295Z,100047.35
2023-02-17T01:16:55.377Z,100049.52
2023-02-17T01:17:55.740Z,100043.29
2023-02-17T01:18:56.444Z,100044.88
2023-02-17T01:19:57.085Z,100047.58
2023-02-17T01:20:56.774Z,100042.17
2023-02-17T01:21:57.002Z,100047.08
2023-02-17T01:22:57.522Z,100044.16
2023-02-17T01:24:00.306Z,100043.25
2023-02-17T01:24:58.043Z,100046.05
2023-02-17T01:25:58.535Z,100045.61
2023-02-17T01:26:58.777Z,100046.31
2023-02-17T01:27:59.079Z,100045.97
2023-02-17T01:28:59.602Z,100045.43
2023-02-17T01:29:59.822Z,100042.16
2023-02-17T01:31:06.356Z,100038.03
2023-02-17T01:32:04.418Z,100041.56
2023-02-17T01:33:04.129Z,100038.13
2023-02-17T01:34:04.972Z,100042.34
2023-02-17T01:35:05.352Z,100037.17
2023-02-17T01:36:07.841Z,100037.54
2023-02-17T01:37:05.387Z,100038.77
2023-02-17T01:38:06.038Z,100038.12
2023-02-17T01:39:06.931Z,100037.25
2023-02-17T01:40:07.870Z,100037.25
2023-02-17T01:41:08.071Z,100035.45
2023-02-17T01:42:12.583Z,100035.02
2023-02-17T01:43:16.283Z,100033.53
2023-02-17T01:44:19.767Z,100028.55
2023-02-17T01:46:20.103Z,100024.53
2023-02-17T01:47:20.083Z,100023.25
2023-02-17T01:49:28.594Z,100023.69
2023-02-17T01:50:31.985Z,100022.47
2023-02-17T01:51:34.457Z,100022.48
2023-02-17T01:52:31.909Z,100022.33
2023-02-17T01:55:41.861Z,100020.4
2023-02-17T01:56:43.617Z,100022.69
2023-02-17T01:57:43.522Z,100019.57
2023-02-17T01:58:46.583Z,100015.34
2023-02-17T01:59:45.259Z,100018.38
2023-02-17T02:00:44.556Z,100016.2
2023-02-17T02:01:45.928Z,100017.3
2023-02-17T02:02:49.314Z,100017.64
2023-02-17T02:03:47.843Z,100014.45
2023-02-17T02:04:51.396Z,100011.5
2023-02-17T02:05:49.496Z,100016.03
2023-02-17T02:06:49.214Z,100011.17
2023-02-17T02:07:52.072Z,100009.91
2023-02-17T02:09:54.535Z,100005.27
2023-02-17T02:10:51.881Z,100008.23
2023-02-17T02:11:52.610Z,100007.84
2023-02-17T02:12:52.715Z,100010.18
2023-02-17T02:13:53.552Z,99999.98
2023-02-17T02:14:58.156Z,100003.84
2023-02-17T02:40:02.838Z,99983.95
2023-02-17T02:42:10.013Z,99975.36
2023-02-17T02:43:07.870Z,99978.09
2023-02-17T02:44:09.727Z,99979.64
2023-02-17T02:45:10.452Z,99977.09
2023-02-17T02:46:09.179Z,99976.63
2023-02-17T02:48:13.746Z,99973.09
2023-02-17T02:49:14.166Z,99973.5
2023-02-17T03:09:14.723Z,99954.77
2023-02-17T03:10:13.896Z,99949.76
2023-02-17T03:11:13.594Z,99951.23
2023-02-17T03:12:12.878Z,99951.73
2023-02-17T03:13:13.100Z,99954.95
2023-02-17T03:14:16.069Z,99951.98
2023-02-17T03:16:16.508Z,99957.88
2023-02-17T03:17:17.104Z,99958.56
2023-02-17T03:18:18.253Z,99959.28
2023-02-17T03:19:19.775Z,99960.63
2023-02-17T03:20:18.058Z,99956
2023-02-17T03:21:18.370Z,99960.29
2023-02-17T03:22:29.016Z,99957.38
2023-02-17T03:23:21.652Z,99949.84
2023-02-17T03:24:21.857Z,99949.89
2023-02-17T03:25:22.594Z,99950.95
2023-02-17T03:26:22.810Z,99950.64
2023-02-17T03:27:22.699Z,99949
2023-02-17T03:28:23.015Z,99951.05
2023-02-17T03:29:23.332Z,99948.05
2023-02-17T03:30:23.874Z,99948.58
2023-02-17T03:31:24.256Z,99951.55
2023-02-17T03:32:24.965Z,99949.12
2023-02-17T03:33:24.690Z,99943.31
2023-02-17T03:34:25.217Z,99949.83
2023-02-17T03:35:25.420Z,99950.55
2023-02-17T03:36:25.934Z,99950.53
2023-02-17T03:37:26.164Z,99945.36
2023-02-17T03:38:26.567Z,99949.43
2023-02-17T03:39:26.873Z,99946.88
2023-02-17T03:40:27.387Z,99947.3
2023-02-17T03:41:27.514Z,99945.16
2023-02-17T03:42:28.025Z,99946.75
2023-02-17T03:43:28.137Z,99942.55
2023-02-17T03:44:28.550Z,99940.51
2023-02-17T03:45:28.763Z,99936.8
2023-02-17T03:46:29.402Z,99939.12
2023-02-17T03:47:29.583Z,99939.95
2023-02-17T03:48:30.121Z,99935.7
2023-02-17T03:49:30.441Z,99938.36
2023-02-17T03:50:31.348Z,99937.69
2023-02-17T03:51:30.951Z,99940.25
2023-02-17T03:52:31.148Z,99940.54
2023-02-17T03:53:31.489Z,99944.36
2023-02-17T03:54:31.791Z,99943.96
2023-02-17T03:55:32.090Z,99942.52
2023-02-17T03:56:32.903Z,99939.8
2023-02-17T03:57:32.837Z,99940.25
2023-02-17T03:58:33.349Z,99942.02
2023-02-17T03:59:33.665Z,99938.8
2023-02-17T04:00:33.886Z,99942.98
2023-02-17T04:01:34.866Z,99939.69
2023-02-17T04:02:34.395Z,99935.97
2023-02-17T04:03:35.653Z,99934.66
2023-02-17T04:04:35.526Z,99935.13
2023-02-17T04:05:35.442Z,99937.18
2023-02-17T04:06:35.980Z,99938.08
2023-02-17T04:07:36.067Z,99941.64
2023-02-17T04:08:37.299Z,99935.52
2023-02-17T04:09:36.804Z,99933.73
2023-02-17T04:10:37.113Z,99936.44
2023-02-17T04:11:37.511Z,99936.83
2023-02-17T04:12:37.741Z,99937.61
2023-02-17T04:13:38.682Z,99936.23
2023-02-17T04:14:38.584Z,99935.7
2023-02-17T04:15:38.906Z,99939.95
2023-02-17T04:16:39.198Z,99937.16
2023-02-17T04:17:39.517Z,99932.24
2023-02-17T04:18:39.820Z,99935.88
2023-02-17T04:19:40.140Z,99929.8
2023-02-17T04:20:40.763Z,99939.8
2023-02-17T04:21:40.881Z,99936.48
2023-02-17T04:22:41.093Z,99936.05
2023-02-17T04:23:41.703Z,99932.11
2023-02-17T04:24:42.030Z,99937.73
2023-02-17T04:25:42.956Z,99932.72
2023-02-17T04:26:42.672Z,99931.78
2023-02-17T04:27:42.859Z,99932.7
2023-02-17T04:28:43.479Z,99935.05
2023-02-17T04:29:43.484Z,99933.58
2023-02-17T04:30:48.280Z,99935.38
2023-02-17T04:31:46.123Z,99931.78
2023-02-17T04:32:46.168Z,99931.95
2023-02-17T04:33:46.380Z,99929.66
2023-02-17T04:34:46.701Z,99930.52
2023-02-17T04:35:47.538Z,99927.33
2023-02-17T04:36:47.544Z,99930.59
2023-02-17T04:37:47.824Z,99930.59
2023-02-17T04:38:48.252Z,99932.48
2023-02-17T04:39:48.365Z,99927.67
2023-02-17T04:40:49.079Z,99929.7
2023-02-17T04:41:49.403Z,99928.7
2023-02-17T04:42:49.511Z,99930.94
2023-02-17T04:43:49.825Z,99929.03
2023-02-17T04:44:50.135Z,99926.55
2023-02-17T04:45:50.777Z,99928.27
2023-02-17T04:46:50.872Z,99927.55
2023-02-17T04:47:51.703Z,99927.66
2023-02-17T04:48:51.506Z,99924.91
2023-02-17T04:49:51.702Z,99926.7
2023-02-17T04:50:52.451Z,99923.98
2023-02-17T04:51:52.662Z,99928.31
2023-02-17T04:52:52.965Z,99925.2
2023-02-17T04:53:53.081Z,99929.05
2023-02-17T04:54:53.450Z,99926.34
2023-02-17T04:55:53.814Z,99924.98
2023-02-17T04:56:54.192Z,99922.43
2023-02-17T04:57:55.025Z,99920.48
2023-02-17T04:58:54.731Z,99920.31
2023-02-17T04:59:55.149Z,99917.31
2023-02-17T05:00:58.651Z,99917.41
2023-02-17T05:01:56.292Z,99918.62
2023-02-17T05:02:56.711Z,99917.79
2023-02-17T05:03:56.861Z,99915.9
2023-02-17T05:04:57.159Z,99916.38
2023-02-17T05:05:57.848Z,99917.14
2023-02-17T05:06:57.974Z,99914.12
2023-02-17T05:07:58.481Z,99919.34
2023-02-17T05:08:58.900Z,99918.81
2023-02-17T05:09:58.896Z,99916.47
2023-02-17T05:10:59.215Z,99914.85
2023-02-17T05:11:59.531Z,99916.2
2023-02-17T05:12:59.843Z,99912.77
2023-02-17T05:14:00.687Z,99912.42
2023-02-17T05:15:00.377Z,99911.28
2023-02-17T05:16:00.845Z,99915.59
2023-02-17T05:17:01.295Z,99909.57
2023-02-17T05:18:01.542Z,99911.12
2023-02-17T05:19:01.719Z,99908.92
2023-02-17T05:20:03.061Z,99911.72
2023-02-17T05:21:02.605Z,99910.11
2023-02-17T05:22:03.187Z,99910.78
2023-02-17T05:23:03.181Z,99909.25
2023-02-17T05:24:03.802Z,99909.42
2023-02-17T05:25:04.561Z,99906.11
2023-02-17T05:26:05.231Z,99905.72
2023-02-17T05:27:04.554Z,99906.22
2023-02-17T05:28:04.759Z,99902.88
2023-02-17T05:29:05.168Z,99901.8
2023-02-17T05:30:06.838Z,99899.92
2023-02-17T05:31:06.049Z,99901.47
2023-02-17T05:32:06.256Z,99902.42
2023-02-17T05:33:06.421Z,99898.75
2023-02-17T05:34:07.042Z,99897.84
2023-02-17T05:35:07.780Z,99893.58
2023-02-17T05:36:09.618Z,99896.33
2023-02-17T05:37:07.899Z,99896.17
2023-02-17T05:38:08.218Z,99896.7
2023-02-17T05:39:08.412Z,99893.45
2023-02-17T05:40:10.385Z,99897.55
2023-02-17T05:41:09.568Z,99893.95
2023-02-17T05:42:09.650Z,99898.58
2023-02-17T05:43:09.974Z,99900.51
2023-02-17T05:44:10.183Z,99904.74
2023-02-17T05:45:10.718Z,99905.96
2023-02-17T05:46:10.996Z,99904.22
2023-02-17T05:47:11.432Z,99909.62
2023-02-17T05:48:11.664Z,99909.7
2023-02-17T05:49:11.753Z,99907.24
2023-02-17T05:50:12.486Z,99906.67
2023-02-17T05:51:12.588Z,99908.66
2023-02-17T05:52:12.996Z,99904.34
2023-02-17T05:53:13.125Z,99902.87
2023-02-17T05:54:13.420Z,99904.2
2023-02-17T05:55:14.146Z,99908.45
2023-02-17T05:56:14.245Z,99907.27
2023-02-17T05:57:14.476Z,99902.99
2023-02-17T05:58:14.782Z,99906
2023-02-17T05:59:15.383Z,99906.52
2023-02-17T06:00:16.340Z,99904.3
2023-02-17T06:01:15.728Z,99901.33
2023-02-17T06:02:16.240Z,99903.52
2023-02-17T06:03:16.379Z,99901.33
2023-02-17T06:04:16.943Z,99901.03
2023-02-17T06:05:17.292Z,99902.55
2023-02-17T06:06:17.375Z,99897.17
2023-02-17T06:07:17.807Z,99897.85
2023-02-17T06:08:18.238Z,99897.27
2023-02-17T06:09:18.451Z,99891.36
2023-02-17T06:10:19.250Z,99896.61
2023-02-17T06:11:19.065Z,99895
2023-02-17T06:12:19.471Z,99894.3
2023-02-17T06:13:20.115Z,99895.95
2023-02-17T06:14:20.100Z,99892.28
2023-02-17T06:15:20.458Z,99894.64
2023-02-17T06:16:20.878Z,99896.09
2023-02-17T06:17:21.165Z,99894.14
2023-02-17T06:18:21.671Z,99897.91
2023-02-17T06:19:21.882Z,99897.86
2023-02-17T06:20:22.281Z,99896.31
2023-02-17T06:21:22.397Z,99898.22
2023-02-17T06:22:22.936Z,99895.88
2023-02-17T06:23:24.146Z,99896.27
2023-02-17T06:24:24.479Z,99894.59
2023-02-17T06:25:23.548Z,99891.88
2023-02-17T06:26:24.122Z,99889.99
2023-02-17T06:27:25.145Z,99892.67
2023-02-17T06:28:24.821Z,99888.47
2023-02-17T06:29:25.025Z,99888.53
2023-02-17T06:30:25.478Z,99886.78
2023-02-17T06:31:26.099Z,99889.84
2023-02-17T06:32:26.375Z,99886.72
2023-02-17T06:33:26.589Z,99887.91
2023-02-17T06:34:26.896Z,99888.97
2023-02-17T06:35:27.215Z,99891.52
2023-02-17T06:36:27.324Z,99888.56
2023-02-17T06:37:27.839Z,99887.44
2023-02-17T06:38:28.506Z,99887.61
2023-02-17T06:39:28.396Z,99885.32
2023-02-17T06:40:28.934Z,99888.81
2023-02-17T06:41:29.600Z,99886.47
2023-02-17T06:42:29.613Z,99879.95
2023-02-17T06:43:29.919Z,99877.39
2023-02-17T06:44:30.241Z,99883.06
2023-02-17T06:45:30.558Z,99878.57
2023-02-17T06:46:31.085Z,99878.11
2023-02-17T06:47:31.167Z,99877.38
2023-02-17T06:48:31.494Z,99876.91
2023-02-17T06:49:31.601Z,99880.52
2023-02-17T06:50:31.941Z,99875.23
2023-02-17T06:51:32.442Z,99876.27
2023-02-17T06:52:33.269Z,99879.8
2023-02-17T06:53:33.071Z,99880.62
2023-02-17T06:54:33.660Z,99876.09
2023-02-17T06:55:33.691Z,99873.03
2023-02-17T06:56:34.206Z,99878.56
2023-02-17T06:57:34.419Z,99877.19
2023-02-17T06:58:36.176Z,99881.16
2023-02-17T06:59:35.150Z,99878.97
2023-02-17T07:00:35.344Z,99882.94
2023-02-17T07:01:35.885Z,99883.89
2023-02-17T07:02:38.981Z,99890
2023-02-17T07:03:36.505Z,99884.87
2023-02-17T07:04:36.830Z,99889.27
2023-02-17T07:05:37.873Z,99886.55
2023-02-17T07:06:37.692Z,99886.49
2023-02-17T07:07:39.008Z,99884.88
2023-02-17T07:08:38.284Z,99885.76
2023-02-17T07:09:39.417Z,99885.88
2023-02-17T07:10:38.912Z,99881.55
2023-02-17T07:11:39.227Z,99887.57
2023-02-17T07:12:39.956Z,99881.9
2023-02-17T07:13:40.028Z,99885.02
2023-02-17T07:14:40.267Z,99884.91
2023-02-17T07:15:40.588Z,99885.62
2023-02-17T07:16:40.739Z,99882.77
2023-02-17T07:17:41.321Z,99884.89
2023-02-17T07:18:42.145Z,99888.47
2023-02-17T07:19:41.942Z,99884.55
2023-02-17T07:20:42.162Z,99884.66
2023-02-17T07:21:42.876Z,99887.9
2023-02-17T07:22:42.980Z,99885.58
2023-02-17T07:23:43.315Z,99885.64
2023-02-17T07:24:43.622Z,99885.78
2023-02-17T07:25:43.824Z,99882.34
2023-02-17T07:26:44.657Z,99882.58
2023-02-17T07:27:44.678Z,99881.38
2023-02-17T07:28:44.979Z,99878.98
2023-02-17T07:29:45.189Z,99875.2
2023-02-17T07:30:45.543Z,99876.56
2023-02-17T07:31:45.963Z,99878.38
2023-02-17T07:32:46.343Z,99873.53
2023-02-17T07:33:46.536Z,99877.62
2023-02-17T07:34:47.193Z,99875.98
2023-02-17T07:35:47.288Z,99875.89
2023-02-17T07:36:47.673Z,99874.8
2023-02-17T07:37:47.997Z,99867.8
2023-02-17T07:38:48.857Z,99869.45
2023-02-17T07:39:49.136Z,99869.14
2023-02-17T07:40:49.048Z,99865.67
2023-02-17T07:41:49.880Z,99868.86
2023-02-17T07:42:49.653Z,99864.12
2023-02-17T07:43:53.366Z,99859.28
2023-02-17T07:44:50.728Z,99863.81
2023-02-17T07:45:55.299Z,99861.75
2023-02-17T07:46:53.485Z,99858.36
2023-02-17T07:47:53.497Z,99860.41
2023-02-17T07:48:54.110Z,99859.78
2023-02-17T07:49:54.225Z,99858.35
2023-02-17T07:50:54.643Z,99853.73
2023-02-17T07:51:54.857Z,99857.08
2023-02-17T07:52:55.272Z,99854.95
2023-02-17T07:53:55.587Z,99857.86
2023-02-17T07:54:56.104Z,99858.01
2023-02-17T07:55:56.317Z,99855
2023-02-17T07:56:56.527Z,99859.08
2023-02-17T07:57:57.143Z,99861.19
2023-02-17T07:58:57.459Z,99854.97
2023-02-17T07:59:57.678Z,99859.55
2023-02-17T08:00:57.974Z,99861.8
2023-02-17T08:01:58.271Z,99859.77
2023-02-17T08:02:59.336Z,99860.66
2023-02-17T08:03:58.963Z,99865.27
2023-02-17T08:04:59.439Z,99862.2
2023-02-17T08:05:59.765Z,99863.48
2023-02-17T08:07:00.097Z,99864.14
2023-02-17T08:08:00.376Z,99860.1
2023-02-17T08:09:00.594Z,99861.44
2023-02-17T08:10:00.913Z,99866.12
2023-02-17T08:11:02.158Z,99863.72
2023-02-17T08:12:01.745Z,99862.6
2023-02-17T08:13:02.166Z,99862.99
2023-02-17T08:14:02.776Z,99865.8
2023-02-17T08:15:03.114Z,99864.22
2023-02-17T08:16:03.202Z,99861.53
2023-02-17T08:17:03.407Z,99861.17
2023-02-17T08:18:03.831Z,99858.19
2023-02-17T08:19:06.076Z,99855.08
2023-02-17T08:20:09.110Z,99853.31
2023-02-17T08:21:07.104Z,99853.56
2023-02-17T08:22:07.048Z,99850.95
2023-02-17T08:23:07.658Z,99852.85
2023-02-17T08:24:08.274Z,99851.57
2023-02-17T08:25:08.583Z,99847.84
2023-02-17T08:26:08.870Z,99846.1
2023-02-17T08:27:08.888Z,99845.97
2023-02-17T08:28:11.578Z,99848.78
2023-02-17T08:29:09.642Z,99849.14
2023-02-17T08:30:11.115Z,99844.52
2023-02-17T08:31:17.539Z,99841.55
2023-02-17T08:32:17.502Z,99840.23
2023-02-17T08:33:15.406Z,99839.92
2023-02-17T08:34:15.726Z,99833.54
2023-02-17T08:35:16.227Z,99829.59
2023-02-17T08:36:17.583Z,99829.05
2023-02-17T08:37:16.943Z,99827.11
2023-02-17T08:38:17.223Z,99828.3
2023-02-17T08:39:18.500Z,99826.09
2023-02-17T08:40:19.446Z,99823.23
2023-02-17T08:41:21.612Z,99823.73
2023-02-17T08:42:20.410Z,99827.58
2023-02-17T08:43:19.460Z,99820.66
2023-02-17T08:44:20.492Z,99820.09
2023-02-17T08:45:20.396Z,99820.61
2023-02-17T08:46:21.058Z,99822.28
2023-02-17T08:47:20.822Z,99814.06
2023-02-17T08:48:21.192Z,99811.53
2023-02-17T08:49:24.728Z,99814.97
2023-02-17T08:50:22.525Z,99810.39
2023-02-17T08:51:24.222Z,99812.28
2023-02-17T08:52:23.007Z,99814
2023-02-17T08:53:23.426Z,99815.03
2023-02-17T08:54:23.499Z,99814.32
2023-02-17T08:55:24.247Z,99813.16
2023-02-17T08:56:26.137Z,99815.56
2023-02-17T08:57:24.581Z,99813.45
2023-02-17T08:58:25.381Z,99808.25
2023-02-17T08:59:25.417Z,99819.81
2023-02-17T09:00:25.894Z,99820.5
2023-02-17T09:01:26.399Z,99817.95
2023-02-17T09:02:26.476Z,99821.2
2023-02-17T09:03:27.573Z,99822.66
2023-02-17T09:04:27.227Z,99825.7
2023-02-17T09:05:27.512Z,99827.12
2023-02-17T09:06:39.365Z,99824.97
2023-02-17T09:07:31.877Z,99830.42
2023-02-17T09:08:32.942Z,99829.41
2023-02-17T09:09:32.665Z,99830.18
2023-02-17T09:10:32.947Z,99828.73
2023-02-17T09:11:33.364Z,99833.06
2023-02-17T09:12:33.693Z,99830.97
2023-02-17T09:13:34.833Z,99828.84
2023-02-17T09:14:34.752Z,99826.64
2023-02-17T09:15:34.552Z,99828.7
2023-02-17T09:16:35.767Z,99825.47
2023-02-17T09:17:39.040Z,99823.87
2023-02-17T09:18:36.685Z,99825.96
2023-02-17T09:19:39.382Z,99825.04
2023-02-17T09:20:38.053Z,99827.3
2023-02-17T09:21:37.429Z,99823.12
2023-02-17T09:22:38.039Z,99818.06
2023-02-17T09:23:38.826Z,99819.3
2023-02-17T09:24:38.776Z,99823.09
2023-02-17T09:25:38.909Z,99822.92
2023-02-17T09:26:39.503Z,99823.95
2023-02-17T09:27:39.660Z,99824.5
2023-02-17T09:28:40.435Z,99823.48
2023-02-17T09:29:40.252Z,99821.63
2023-02-17T09:30:41.151Z,99822.56
2023-02-17T09:31:41.279Z,99823.91
2023-02-17T09:32:42.458Z,99817.7
2023-02-17T09:33:42.515Z,99815.02
2023-02-17T09:34:42.162Z,99816.91
2023-02-17T09:35:42.436Z,99812.93
2023-02-17T09:36:42.815Z,99816.06
2023-02-17T09:37:43.262Z,99813.97
2023-02-17T09:38:43.922Z,99813.27
2023-02-17T09:39:44.832Z,99817.72
2023-02-17T09:40:48.088Z,99818.48
2023-02-17T09:41:49.336Z,99811.38
2023-02-17T09:42:48.244Z,99813.4
2023-02-17T09:43:47.810Z,99807.88
2023-02-17T09:44:52.234Z,99806.9
2023-02-17T09:45:54.828Z,99807.28
2023-02-17T09:47:04.471Z,99807.58
2023-02-17T09:48:02.052Z,99805.11
2023-02-17T09:49:03.629Z,99805.66
2023-02-17T09:50:07.228Z,99808.38
2023-02-17T09:51:17.271Z,99805.28
2023-02-17T09:57:29.296Z,99792.27
2023-02-17T09:58:33.510Z,99786.11
2023-02-17T10:00:43.012Z,99784.81
2023-02-17T10:01:37.136Z,99781.92
2023-02-17T10:04:44.913Z,99784.2
2023-02-17T10:06:49.268Z,99781.77
2023-02-17T10:07:51.720Z,99779.07
2023-02-17T10:12:10.290Z,99784.73
2023-02-17T10:13:01.024Z,99790.48
2023-02-17T10:14:09.640Z,99790.02
2023-02-17T10:15:15.653Z,99788.66
2023-02-17T10:16:10.351Z,99788.55
2023-02-17T10:20:25.833Z,99787.78
2023-02-17T10:21:21.863Z,99790.56
2023-02-17T10:22:22.051Z,99787.06
2023-02-17T10:23:26.062Z,99789.73
2023-02-17T10:24:25.132Z,99790.02
2023-02-17T10:40:01.178Z,99772.45
2023-02-17T10:41:05.700Z,99767.02
2023-02-17T10:42:05.194Z,99765.59
2023-02-17T10:43:09.487Z,99769.15
2023-02-17T10:46:19.574Z,99758.95
2023-02-17T10:47:18.228Z,99758.38
2023-02-17T10:50:25.112Z,99756.3
2023-02-17T10:53:29.256Z,99748.31
2023-02-17T10:57:37.350Z,99743.52
2023-02-17T10:58:44.114Z,99748.06
2023-02-17T10:59:40.726Z,99746.59
2023-02-17T11:00:38.599Z,99745.84
2023-02-17T11:01:39.315Z,99746.37
2023-02-17T11:02:44.316Z,99740.52
2023-02-17T11:03:42.086Z,99744.68
2023-02-17T11:04:43.753Z,99744.58
2023-02-17T11:05:42.622Z,99742.64
2023-02-17T11:06:48.612Z,99734.98
2023-02-17T11:07:46.411Z,99740.02
2023-02-17T11:08:51.847Z,99740.11
2023-02-17T11:09:58.609Z,99733.65
2023-02-17T11:11:01.385Z,99736.4
2023-02-17T11:12:06.631Z,99732.31
2023-02-17T11:12:55.649Z,99735.95
2023-02-17T11:15:03.485Z,99735.98
2023-02-17T11:16:01.474Z,99736.02
2023-02-17T11:17:04.168Z,99736.86
2023-02-17T11:18:09.649Z,99733.95
2023-02-17T11:19:03.594Z,99731.81
2023-02-17T11:21:11.580Z,99731.27
2023-02-17T11:24:18.367Z,99722.59
2023-02-17T11:25:27.183Z,99717.53
2023-02-17T11:26:24.643Z,99713.67
2023-02-17T11:27:25.859Z,99716.29
2023-02-17T11:28:25.051Z,99713.84
2023-02-17T11:29:24.204Z,99716.96
2023-02-17T11:30:25.509Z,99711.7
2023-02-17T11:31:27.347Z,99709.86
2023-02-17T11:32:32.145Z,99712.12
2023-02-17T11:33:36.857Z,99708.44
2023-02-17T11:34:36.461Z,99707.45
2023-02-17T11:36:39.963Z,99701.66
2023-02-17T11:37:42.932Z,99704.41
2023-02-17T11:39:46.630Z,99699.66
2023-02-17T11:41:46.911Z,99697.91
2023-02-17T11:43:57.920Z,99690.45
2023-02-17T11:44:57.821Z,99691.66
2023-02-17T12:40:41.709Z,99594.17
2023-02-17T12:41:43.669Z,99588.37
2023-02-17T12:42:49.907Z,99595.65
2023-02-17T12:43:49.703Z,99594.17
2023-02-17T12:45:00.070Z,99586.56
2023-02-17T12:45:49.130Z,99588.23
2023-02-17T12:46:53.311Z,99589.83
2023-02-17T12:47:59.569Z,99593.34
2023-02-17T12:50:03.090Z,99590.62
2023-02-17T12:58:24.821Z,99584.03
2023-02-17T12:59:34.464Z,99580.53
2023-02-17T13:00:38.375Z,99581.61
2023-02-17T13:01:32.697Z,99577.06
2023-02-17T13:02:31.429Z,99571.89
2023-02-17T13:03:36.153Z,99567.88
2023-02-17T13:04:34.791Z,99566.91
2023-02-17T13:09:45.829Z,99554.41
2023-02-17T13:10:43.646Z,99551.96
2023-02-17T13:11:43.885Z,99549.5
2023-02-17T13:13:47.250Z,99553.92
2023-02-17T13:15:48.625Z,99547.94
2023-02-17T13:16:49.020Z,99545.88
2023-02-17T13:18:54.256Z,99555.48
2023-02-17T13:21:59.077Z,99551.12
2023-02-17T13:25:04.633Z,99540.48
2023-02-17T13:36:38.103Z,99516.58
2023-02-17T13:38:35.531Z,99513.7
2023-02-17T13:39:37.702Z,99509.45
2023-02-17T13:40:40.141Z,99510.05
2023-02-17T13:41:49.586Z,99504.85
2023-02-17T13:42:44.572Z,99501.7
2023-02-17T13:43:43.155Z,99497.83
2023-02-17T13:44:45.914Z,99495.53
2023-02-17T13:46:48.496Z,99492.94
2023-02-17T13:47:50.346Z,99491.55
2023-02-17T13:49:01.841Z,99493.09
2023-02-17T13:49:53.940Z,99487.43
2023-02-17T13:50:54.468Z,99487.3
2023-02-17T13:51:52.126Z,99488.59
2023-02-17T13:52:52.213Z,99489.59
2023-02-17T13:53:53.254Z,99485.13
2023-02-17T13:55:00.625Z,99486.48
2023-02-17T13:56:04.398Z,99491.05
2023-02-17T13:57:02.187Z,99490.14
2023-02-17T13:58:02.278Z,99488.92
2023-02-17T13:59:15.800Z,99489.9
2023-02-17T14:01:17.715Z,99483.76
2023-02-17T14:02:35.442Z,99484.89
2023-02-17T14:04:22.185Z,99480.95
2023-02-17T14:06:36.254Z,99482.95
2023-02-17T14:07:28.770Z,99481.93
2023-02-17T14:09:35.142Z,99483.16
2023-02-17T14:10:33.392Z,99488.48
2023-02-17T14:11:33.175Z,99481.52
2023-02-17T14:12:33.415Z,99485.88
2023-02-17T14:13:35.256Z,99485.72
2023-02-17T14:14:37.515Z,99488.44
2023-02-17T14:15:35.194Z,99484.87
2023-02-17T14:16:41.113Z,99483.08
2023-02-17T14:17:38.552Z,99478.86
2023-02-17T14:18:41.432Z,99477.09
2023-02-17T14:19:45.124Z,99473.31
2023-02-17T14:20:42.773Z,99474.55
2023-02-17T14:21:46.270Z,99476.27
2023-02-17T14:22:50.848Z,99471.84
2023-02-17T14:23:51.414Z,99469.33
2023-02-17T14:25:50.417Z,99480.12
2023-02-17T14:26:50.799Z,99475.73
2023-02-17T14:27:51.146Z,99478.79
2023-02-17T14:29:53.644Z,99470.75
2023-02-17T14:30:54.311Z,99468.45
2023-02-17T14:31:54.416Z,99466.69
2023-02-17T14:33:59.250Z,99466.02
2023-02-17T14:36:03.303Z,99459.09
2023-02-17T14:39:09.172Z,99452.63
2023-02-17T14:41:10.825Z,99450.93
2023-02-17T14:42:11.475Z,99447.81
2023-02-17T14:43:11.621Z,99439.3
2023-02-17T14:44:12.020Z,99437.12
2023-02-17T14:45:12.848Z,99438.94
2023-02-17T14:46:12.946Z,99433.79
2023-02-17T14:47:12.953Z,99426
2023-02-17T14:48:13.266Z,99427.94
2023-02-17T14:49:13.782Z,99430.17
2023-02-17T14:50:14.723Z,99429.5
2023-02-17T14:51:16.785Z,99425.47
2023-02-17T14:54:26.863Z,99423.53
2023-02-17T14:57:29.301Z,99422.73
2023-02-17T14:58:30.441Z,99410.53
2023-02-17T14:59:30.028Z,99410.2
2023-02-17T15:00:30.965Z,99406.67
2023-02-17T15:01:31.075Z,99399.84
2023-02-17T15:02:31.390Z,99396.08
2023-02-17T15:03:32.001Z,99392
2023-02-17T15:04:31.751Z,99392.96
2023-02-17T15:05:32.034Z,99383.23
2023-02-17T15:07:34.802Z,99380.84
2023-02-17T15:08:36.139Z,99374.06
2023-02-17T15:09:35.225Z,99375.37
2023-02-17T15:10:35.422Z,99376.03
2023-02-17T15:11:36.260Z,99377.98
2023-02-17T15:12:36.236Z,99376.08
2023-02-17T15:13:36.580Z,99374.94
2023-02-17T15:14:37.001Z,99369.46